Date,TemperatureHighF,TemperatureAvgF,TemperatureLowF,DewpointHighF,DewpointAvgF,DewpointLowF,HumidityHigh,HumidityAvg,HumidityLow,PressureMaxIn,PressureMinIn,WindSpeedMaxMPH,WindSpeedAvgMPH,GustSpeedMaxMPH,PrecipitationSumIn
2013-1-1,32.0,28.6,27.0,31.0,27.3,23.0,99,94,86,0.00,40.00,9,5,12,0.00
2013-1-2,21.0,12.8,6.0,10.0,5.0,2.0,95,71,51,0.00,40.00,6,4,9,0.00
2013-1-3,29.0,20.8,11.0,25.0,14.3,5.0,89,75,61,0.00,40.00,16,8,21,0.00
2013-1-4,26.0,20.4,14.0,20.0,16.3,12.0,92,84,76,0.00,40.00,9,6,18,0.00
2013-1-5,36.0,27.9,17.0,33.0,24.9,16.0,99,88,68,0.00,40.00,14,7,21,0.00
2013-1-6,35.0,30.6,25.0,33.0,27.7,21.0,94,88,84,0.00,40.00,19,10,28,0.00
2013-1-7,31.0,24.6,13.0,25.0,21.9,13.0,98,89,74,0.00,40.00,12,5,17,0.00
2013-1-8,41.0,29.0,24.0,30.0,25.1,22.0,93,85,60,0.00,40.00,10,6,12,0.00
2013-1-9,43.0,38.9,32.0,38.0,33.4,26.0,92,80,68,0.00,40.00,14,7,21,0.00
2013-1-10,44.0,34.1,27.0,40.0,30.4,25.0,98,86,65,0.00,40.00,14,7,19,0.00
2013-1-11,58.0,52.2,44.0,55.0,49.4,41.0,99,90,72,0.00,40.00,15,10,24,0.00
2013-1-12,61.0,56.4,51.0,55.0,53.2,47.0,99,89,77,0.00,40.00,12,6,17,0.00
2013-1-13,54.0,38.2,24.0,54.0,37.9,21.0,99,98,89,0.00,40.00,18,9,24,0.00
2013-1-14,23.0,19.7,17.0,19.0,15.8,12.0,91,84,73,0.00,40.00,14,7,21,0.00
2013-1-15,29.0,23.7,18.0,22.0,18.7,16.0,96,81,59,0.00,40.00,12,6,14,0.00
2013-1-16,35.0,27.7,22.0,26.0,22.8,21.0,97,82,59,0.00,40.00,12,4,17,0.00
2013-1-17,39.0,30.5,22.0,29.0,22.3,14.0,95,73,49,0.00,40.00,16,7,24,0.00
2013-1-18,37.0,27.9,20.0,26.0,20.3,15.0,91,73,52,0.00,40.00,21,9,33,0.00
2013-1-19,51.0,42.5,36.0,36.0,30.0,25.0,81,61,50,0.00,40.00,17,11,35,0.00
2013-1-20,42.0,26.4,20.0,37.0,16.0,10.0,81,64,56,0.00,40.00,30,14,51,0.00
2013-1-21,21.0,14.8,8.0,11.0,6.2,-2.0,83,68,56,0.00,40.00,23,15,34,0.00
2013-1-22,14.0,7.8,4.0,2.0,-0.5,-2.0,79,68,57,0.00,40.00,20,12,26,0.00
2013-1-23,20.0,14.5,10.0,17.0,6.5,0.0,91,70,57,0.00,40.00,13,7,23,0.00
2013-1-24,18.0,13.8,10.0,14.0,9.3,7.0,88,82,74,0.00,40.00,16,8,22,0.00
2013-6-12,86.0,84.2,82.0,76.0,74.8,74.0,80,73,67,0.00,40.00,10,8,20,0.00
2013-6-13,74.0,68.3,66.0,68.0,62.4,53.0,99,84,51,0.00,40.00,16,8,26,0.00
2013-6-14,77.0,65.0,57.0,61.0,57.5,56.0,97,79,49,0.00,40.00,6,4,11,0.00
2013-6-15,74.0,66.9,60.0,69.0,64.2,59.0,97,91,80,0.00,40.00,7,3,10,0.00
2013-6-16,81.0,74.0,67.0,71.0,68.1,65.0,98,82,65,0.00,40.00,23,8,29,0.00
2013-6-17,83.0,70.1,67.0,72.0,68.2,61.0,98,94,48,0.00,40.00,4,2,7,0.00
2013-6-18,78.0,72.0,69.0,69.0,64.3,60.0,95,78,56,0.00,40.00,11,7,16,0.00
2013-6-19,79.0,70.0,61.0,61.0,56.2,53.0,96,65,42,0.00,40.00,7,4,12,0.00
2013-6-20,77.0,65.2,60.0,63.0,59.5,56.0,94,83,62,0.00,40.00,4,3,7,0.00
2013-6-26,70.0,70.0,70.0,69.0,69.0,69.0,97,97,97,0.00,40.00,4,4,6,0.00